Time;durP1;ratioP1;P1;durP2;ratioP2;P2;SDS_P1;SDS_P2;PMS_P1;PMS_P2;Temp;Humidity;BMP_temperature;BMP_pressure;BME280_temperature;BME280_humidity;BME280_pressure;Samples;Min_cycle;Max_cycle;Signal;HPM_P1;HPM_P2
2022/11/05 00:09:59;;;;;;;60.42;13.15;;;;;;;;;;5040244;28;20041;-41
2022/11/05 00:17:56;;;;;;;54.17;12.38;;;;;;;;;;5047068;28;20498;-42
2022/11/05 00:20:22;;;;;;;36.40;10.48;;;;;;;;;;5045193;28;20059;-42
2022/11/05 00:25:35;;;;;;;44.25;11.43;;;;;;;;;;5041853;28;20448;-43
2022/11/05 00:28:01;;;;;;;53.45;13.15;;;;;;;;;;5039414;28;20409;-44
2022/11/05 00:30:28;;;;;;;49.67;12.20;;;;;;;;;;5042439;28;20069;-46
2022/11/05 00:32:59;;;;;;;34.55;11.05;;;;;;;;;;5044672;28;20059;-45
2022/11/05 00:35:25;;;;;;;47.70;12.02;;;;;;;;;;5044081;28;20056;-43
2022/11/05 00:37:52;;;;;;;45.03;11.50;;;;;;;;;;5043267;28;20053;-46
2022/11/05 00:40:19;;;;;;;45.45;12.05;;;;;;;;;;5041281;28;20049;-43
2022/11/05 00:45:31;;;;;;;59.47;14.10;;;;;;;;;;5043403;28;20033;-46
2022/11/05 00:50:42;;;;;;;40.60;11.30;;;;;;;;;;5044003;28;20037;-42
2022/11/05 00:53:09;;;;;;;43.13;11.88;;;;;;;;;;5045870;28;20069;-42
2022/11/05 00:55:40;;;;;;;73.28;14.38;;;;;;;;;;5040536;28;20041;-42
2022/11/05 00:58:11;;;;;;;49.83;12.43;;;;;;;;;;5039661;28;20045;-43
2022/11/05 01:00:39;;;;;;;55.08;13.40;;;;;;;;;;5042338;28;20042;-45
2022/11/05 01:03:07;;;;;;;47.10;11.63;;;;;;;;;;5042630;28;20883;-45
2022/11/05 01:05:38;;;;;;;50.03;11.90;;;;;;;;;;5045779;28;20041;-43
2022/11/05 01:08:05;;;;;;;67.28;13.10;;;;;;;;;;5046198;28;20033;-48
2022/11/05 01:10:32;;;;;;;43.58;12.00;;;;;;;;;;5041173;28;20409;-43
2022/11/05 01:12:58;;;;;;;39.40;11.95;;;;;;;;;;5040530;28;20041;-42
2022/11/05 01:15:25;;;;;;;51.55;12.15;;;;;;;;;;5042761;28;20073;-43
2022/11/05 01:17:51;;;;;;;41.63;11.90;;;;;;;;;;5044388;28;20766;-42
2022/11/05 01:20:18;;;;;;;36.83;11.52;;;;;;;;;;5040310;28;20037;-42
2022/11/05 01:22:44;;;;;;;41.63;11.63;;;;;;;;;;5042890;28;20122;-43
2022/11/05 01:25:11;;;;;;;40.83;11.75;;;;;;;;;;5040867;28;20052;-42
2022/11/05 01:27:38;;;;;;;54.85;12.98;;;;;;;;;;5040203;28;20067;-42
2022/11/05 01:30:06;;;;;;;74.97;15.43;;;;;;;;;;5044805;28;20123;-42
2022/11/05 01:32:33;;;;;;;29.30;9.82;;;;;;;;;;5043094;28;20660;-41
2022/11/05 01:34:59;;;;;;;42.40;11.40;;;;;;;;;;5044515;28;20121;-42
2022/11/05 01:37:26;;;;;;;37.30;10.75;;;;;;;;;;5040481;28;20049;-42
2022/11/05 01:39:52;;;;;;;57.88;12.95;;;;;;;;;;5040391;28;20499;-42
2022/11/05 01:42:21;;;;;;;38.75;12.40;;;;;;;;;;5042180;28;20129;-42
2022/11/05 01:44:50;;;;;;;47.13;13.15;;;;;;;;;;5043043;28;20037;-42
2022/11/05 01:47:28;;;;;;;41.80;12.45;;;;;;;;;;5045370;28;20036;-42
2022/11/05 01:49:56;;;;;;;56.08;12.98;;;;;;;;;;5044128;28;20401;-43
2022/11/05 01:52:23;;;;;;;59.75;13.85;;;;;;;;;;5037115;28;20044;-41
2022/11/05 01:54:49;;;;;;;56.13;12.75;;;;;;;;;;5046649;28;20029;-41
2022/11/05 01:57:16;;;;;;;50.90;13.18;;;;;;;;;;5045472;28;20037;-42
2022/11/05 01:59:48;;;;;;;50.17;14.50;;;;;;;;;;5046659;28;20042;-42
2022/11/05 02:02:15;;;;;;;65.85;14.52;;;;;;;;;;5045543;28;20091;-43
2022/11/05 02:04:44;;;;;;;52.90;14.00;;;;;;;;;;5046436;28;20067;-42
2022/11/05 02:07:11;;;;;;;46.05;13.38;;;;;;;;;;5043332;28;20086;-43
2022/11/05 02:09:48;;;;;;;52.60;13.38;;;;;;;;;;5045841;28;20045;-43
2022/11/05 02:12:14;;;;;;;60.78;13.48;;;;;;;;;;5045206;28;20048;-43
2022/11/05 02:14:41;;;;;;;43.78;12.30;;;;;;;;;;5046699;28;20041;-44
2022/11/05 02:17:11;;;;;;;56.45;13.40;;;;;;;;;;5048717;28;20041;-42
2022/11/05 02:19:37;;;;;;;46.35;12.68;;;;;;;;;;5040786;28;20044;-42
2022/11/05 02:22:22;;;;;;;89.95;16.23;;;;;;;;;;5042339;28;20102;-42
2022/11/05 02:24:59;;;;;;;52.55;13.57;;;;;;;;;;5044764;28;20765;-43
2022/11/05 02:27:55;;;;;;;44.90;14.05;;;;;;;;;;5042771;28;20555;-42
2022/11/05 02:30:33;;;;;;;35.00;11.75;;;;;;;;;;5004822;28;20058;-42
2022/11/05 02:33:00;;;;;;;49.25;13.50;;;;;;;;;;5005596;28;20057;-41
2022/11/05 02:35:35;;;;;;;44.22;12.75;;;;;;;;;;5006880;28;20422;-43
2022/11/05 02:38:06;;;;;;;66.35;14.23;;;;;;;;;;5007278;28;20872;-41
2022/11/05 02:40:32;;;;;;;48.88;13.00;;;;;;;;;;5004560;28;20112;-42
2022/11/05 02:43:01;;;;;;;50.67;14.18;;;;;;;;;;5004184;28;20042;-42
2022/11/05 02:45:33;;;;;;;50.55;14.13;;;;;;;;;;5004203;28;20541;-41
2022/11/05 02:48:09;;;;;;;60.58;14.15;;;;;;;;;;5005715;28;20054;-42
2022/11/05 02:50:45;;;;;;;42.28;13.50;;;;;;;;;;5007562;28;20248;-42
2022/11/05 02:53:17;;;;;;;67.00;15.40;;;;;;;;;;5004948;28;20054;-42
2022/11/05 02:55:48;;;;;;;50.60;13.95;;;;;;;;;;5003489;28;20061;-41
2022/11/05 02:58:14;;;;;;;57.22;15.18;;;;;;;;;;5003492;28;20053;-42
2022/11/05 03:00:54;;;;;;;63.15;14.90;;;;;;;;;;5008422;28;20046;-44
2022/11/05 03:03:20;;;;;;;38.15;13.02;;;;;;;;;;5000500;28;20097;-42
2022/11/05 03:05:53;;;;;;;57.58;14.75;;;;;;;;;;5008074;28;20053;-41
2022/11/05 03:08:31;;;;;;;40.53;13.35;;;;;;;;;;5048724;28;20041;-42
2022/11/05 03:11:01;;;;;;;41.03;12.68;;;;;;;;;;5045840;28;20037;-42
2022/11/05 03:13:36;;;;;;;40.35;12.48;;;;;;;;;;5043950;28;20098;-45
2022/11/05 03:16:09;;;;;;;69.43;16.77;;;;;;;;;;5042962;28;20045;-43
2022/11/05 03:18:41;;;;;;;63.73;16.23;;;;;;;;;;5044699;28;20116;-43
2022/11/05 03:21:16;;;;;;;53.97;14.80;;;;;;;;;;5044393;28;20051;-44
2022/11/05 03:23:55;;;;;;;70.45;16.10;;;;;;;;;;5045454;28;20041;-44
2022/11/05 03:26:27;;;;;;;54.75;14.75;;;;;;;;;;5044472;28;20041;-46
2022/11/05 03:29:05;;;;;;;49.85;15.02;;;;;;;;;;5045422;28;20041;-43
2022/11/05 03:31:33;;;;;;;46.60;15.20;;;;;;;;;;5042859;28;20049;-43
2022/11/05 03:33:59;;;;;;;55.38;13.57;;;;;;;;;;5044174;28;20045;-45
2022/11/05 03:36:36;;;;;;;58.78;15.82;;;;;;;;;;5042693;28;20486;-45
2022/11/05 03:39:05;;;;;;;55.75;14.75;;;;;;;;;;5044671;28;20591;-42
2022/11/05 03:41:32;;;;;;;53.13;15.05;;;;;;;;;;5045134;28;20037;-42
2022/11/05 03:44:02;;;;;;;46.22;13.75;;;;;;;;;;5046210;28;20048;-42
2022/11/05 03:46:35;;;;;;;45.28;13.77;;;;;;;;;;5041311;28;20595;-44
2022/11/05 03:49:03;;;;;;;79.30;17.15;;;;;;;;;;5043969;28;20037;-44
2022/11/05 03:51:46;;;;;;;59.15;14.90;;;;;;;;;;5045394;28;20521;-46
2022/11/05 03:54:13;;;;;;;58.80;15.70;;;;;;;;;;5041669;28;20414;-43
2022/11/05 03:56:44;;;;;;;47.50;13.13;;;;;;;;;;5044152;28;20049;-47
2022/11/05 03:59:11;;;;;;;41.50;12.75;;;;;;;;;;5044181;28;20076;-45
2022/11/05 04:01:38;;;;;;;59.55;15.43;;;;;;;;;;5044976;28;20451;-44
2022/11/05 04:04:05;;;;;;;52.15;14.75;;;;;;;;;;5043394;28;20041;-44
2022/11/05 04:14:55;;;;;;;52.63;15.05;;;;;;;;;;4982792;28;20063;-42
2022/11/05 04:17:21;;;;;;;49.55;14.13;;;;;;;;;;4982962;28;20214;-43
2022/11/05 04:25:20;;;;;;;43.53;14.07;;;;;;;;;;4982422;28;20061;-49
2022/11/05 04:27:46;;;;;;;60.38;16.52;;;;;;;;;;4980780;28;20073;-42
2022/11/05 04:30:17;;;;;;;71.85;16.98;;;;;;;;;;4981983;28;20038;-45
2022/11/05 04:32:57;;;;;;;66.05;16.02;;;;;;;;;;4981018;28;20530;-44
2022/11/05 04:35:24;;;;;;;50.15;15.90;;;;;;;;;;4982805;28;20049;-43
2022/11/05 04:37:51;;;;;;;48.97;14.05;;;;;;;;;;4982303;28;20054;-40
2022/11/05 04:40:18;;;;;;;43.63;14.18;;;;;;;;;;4979287;28;20038;-42
2022/11/05 04:42:44;;;;;;;74.18;16.65;;;;;;;;;;4981499;28;20053;-40
2022/11/05 04:45:11;;;;;;;46.05;15.07;;;;;;;;;;4981539;28;20711;-41
2022/11/05 04:47:37;;;;;;;51.55;14.23;;;;;;;;;;4979782;28;20073;-42
2022/11/05 04:50:04;;;;;;;68.20;16.60;;;;;;;;;;4982302;28;20050;-42
2022/11/05 04:52:30;;;;;;;51.72;15.43;;;;;;;;;;5026091;28;20056;-40
2022/11/05 04:54:57;;;;;;;58.05;18.02;;;;;;;;;;5040750;28;20041;-41
2022/11/05 04:57:23;;;;;;;54.72;16.33;;;;;;;;;;5043810;28;20496;-42
2022/11/05 04:59:51;;;;;;;48.85;16.02;;;;;;;;;;5043325;28;20103;-40
2022/11/05 05:02:17;;;;;;;66.70;18.13;;;;;;;;;;5042330;28;20576;-44
2022/11/05 05:04:44;;;;;;;78.13;19.27;;;;;;;;;;5042857;28;20136;-47
2022/11/05 05:07:10;;;;;;;48.03;16.73;;;;;;;;;;5043082;28;20056;-43
2022/11/05 05:09:37;;;;;;;58.20;17.65;;;;;;;;;;5038662;28;20120;-40
2022/11/05 05:12:03;;;;;;;69.97;19.75;;;;;;;;;;5043854;28;20041;-40
2022/11/05 05:14:30;;;;;;;52.22;18.13;;;;;;;;;;5047351;28;20397;-41
2022/11/05 05:16:56;;;;;;;45.00;16.65;;;;;;;;;;5043660;28;20044;-41
2022/11/05 05:19:24;;;;;;;55.72;20.67;;;;;;;;;;5039798;28;20037;-41
2022/11/05 05:21:51;;;;;;;57.00;17.83;;;;;;;;;;5041793;28;20051;-40
2022/11/05 05:24:18;;;;;;;56.60;18.30;;;;;;;;;;5042496;28;20033;-39
2022/11/05 05:26:46;;;;;;;67.60;19.95;;;;;;;;;;5044351;28;20040;-39
2022/11/05 05:29:13;;;;;;;61.03;20.40;;;;;;;;;;5049778;28;20033;-40
2022/11/05 05:31:39;;;;;;;58.63;19.95;;;;;;;;;;5044706;28;20789;-43
2022/11/05 05:34:07;;;;;;;64.25;21.45;;;;;;;;;;5044089;28;20045;-44
2022/11/05 05:36:33;;;;;;;77.28;22.10;;;;;;;;;;5046839;28;20137;-45
2022/11/05 05:39:00;;;;;;;58.97;19.95;;;;;;;;;;5048572;28;20076;-43
2022/11/05 05:41:26;;;;;;;50.17;18.92;;;;;;;;;;5044937;28;20038;-43
2022/11/05 05:43:53;;;;;;;58.58;19.77;;;;;;;;;;5043372;28;20116;-41
2022/11/05 05:46:19;;;;;;;57.90;19.80;;;;;;;;;;5045342;28;20043;-45
2022/11/05 05:48:49;;;;;;;62.97;19.67;;;;;;;;;;5047267;28;20044;-44
2022/11/05 05:51:16;;;;;;;47.35;18.02;;;;;;;;;;5051093;28;20045;-43
2022/11/05 05:53:43;;;;;;;50.42;17.33;;;;;;;;;;5045472;28;20409;-42
2022/11/05 05:56:13;;;;;;;68.88;19.98;;;;;;;;;;5047568;28;20060;-44
2022/11/05 05:58:40;;;;;;;62.75;19.40;;;;;;;;;;5046413;28;20041;-44
2022/11/05 06:01:08;;;;;;;64.10;19.90;;;;;;;;;;5044951;28;20111;-42
2022/11/05 06:03:41;;;;;;;72.78;20.85;;;;;;;;;;5041678;28;20068;-43
2022/11/05 06:06:09;;;;;;;62.65;20.00;;;;;;;;;;5047546;28;20051;-45
2022/11/05 06:08:35;;;;;;;60.55;19.95;;;;;;;;;;5047001;28;20034;-43
2022/11/05 06:11:02;;;;;;;74.63;20.63;;;;;;;;;;5047192;28;20040;-44
2022/11/05 06:13:29;;;;;;;66.70;19.23;;;;;;;;;;5043641;28;20145;-44
2022/11/05 06:16:04;;;;;;;64.35;18.65;;;;;;;;;;5045606;28;20051;-45
2022/11/05 06:18:31;;;;;;;56.92;19.23;;;;;;;;;;5041337;28;20045;-43
2022/11/05 06:21:01;;;;;;;64.90;18.73;;;;;;;;;;5047152;28;20051;-43
2022/11/05 06:23:28;;;;;;;42.08;16.00;;;;;;;;;;5047791;28;20123;-42
2022/11/05 06:25:57;;;;;;;58.03;19.15;;;;;;;;;;5045810;28;20504;-43
2022/11/05 06:28:24;;;;;;;50.42;18.80;;;;;;;;;;5042722;28;20366;-45
2022/11/05 06:30:50;;;;;;;51.78;20.23;;;;;;;;;;5043751;28;20620;-42
2022/11/05 06:33:17;;;;;;;77.15;21.60;;;;;;;;;;5045724;28;20377;-42
2022/11/05 06:35:44;;;;;;;58.38;21.98;;;;;;;;;;5047130;28;20037;-42
2022/11/05 06:38:10;;;;;;;54.05;17.58;;;;;;;;;;5046246;28;20055;-44
2022/11/05 06:40:37;;;;;;;67.47;21.58;;;;;;;;;;5043491;28;20042;-42
2022/11/05 06:43:03;;;;;;;84.13;21.70;;;;;;;;;;5041961;28;20041;-43
2022/11/05 06:45:30;;;;;;;45.90;17.90;;;;;;;;;;5045659;28;20043;-42
2022/11/05 06:47:57;;;;;;;68.78;19.90;;;;;;;;;;5048036;28;20041;-45
2022/11/05 06:50:24;;;;;;;43.03;18.08;;;;;;;;;;5046133;28;20087;-42
2022/11/05 06:53:01;;;;;;;53.88;17.63;;;;;;;;;;5045408;28;20041;-47
2022/11/05 06:55:28;;;;;;;62.17;19.20;;;;;;;;;;5044092;28;20112;-43
2022/11/05 06:57:55;;;;;;;65.10;18.88;;;;;;;;;;5042132;28;20159;-42
2022/11/05 07:00:22;;;;;;;56.35;19.45;;;;;;;;;;5046301;28;20037;-45
2022/11/05 07:02:48;;;;;;;51.05;16.70;;;;;;;;;;5044957;28;20068;-42
2022/11/05 07:05:15;;;;;;;51.25;18.90;;;;;;;;;;5045759;28;20040;-46
2022/11/05 07:07:42;;;;;;;74.25;20.95;;;;;;;;;;5043493;28;20049;-42
2022/11/05 07:10:13;;;;;;;52.67;16.70;;;;;;;;;;5043513;28;20037;-44
2022/11/05 07:12:39;;;;;;;78.82;20.77;;;;;;;;;;5039164;28;20033;-42
2022/11/05 07:15:06;;;;;;;69.85;19.38;;;;;;;;;;5043760;28;20044;-42
2022/11/05 07:17:33;;;;;;;62.00;19.35;;;;;;;;;;5048158;28;20073;-42
2022/11/05 07:19:59;;;;;;;60.33;17.90;;;;;;;;;;5045815;28;20041;-43
2022/11/05 07:22:26;;;;;;;71.45;19.48;;;;;;;;;;5048806;28;20041;-42
2022/11/05 07:24:52;;;;;;;49.95;17.25;;;;;;;;;;5048513;28;20049;-43
2022/11/05 07:27:19;;;;;;;59.40;19.83;;;;;;;;;;5042962;28;20514;-46
2022/11/05 07:29:45;;;;;;;60.30;19.33;;;;;;;;;;5046514;28;20493;-42
2022/11/05 07:32:12;;;;;;;72.80;20.63;;;;;;;;;;5045755;28;20044;-44
2022/11/05 07:34:38;;;;;;;49.65;17.52;;;;;;;;;;5045382;28;20141;-46
2022/11/05 07:37:05;;;;;;;60.78;18.67;;;;;;;;;;5044088;28;20036;-42
2022/11/05 07:39:31;;;;;;;39.80;16.73;;;;;;;;;;5045028;28;20048;-42
2022/11/05 07:41:58;;;;;;;60.70;17.88;;;;;;;;;;5046127;28;20132;-43
2022/11/05 07:44:31;;;;;;;75.17;19.63;;;;;;;;;;5044121;28;20509;-43
2022/11/05 07:46:57;;;;;;;43.08;17.00;;;;;;;;;;5044293;28;20281;-41
2022/11/05 07:49:24;;;;;;;45.40;16.95;;;;;;;;;;5042003;28;20037;-45
2022/11/05 07:51:50;;;;;;;47.55;16.88;;;;;;;;;;5041306;28;20041;-45
2022/11/05 07:54:17;;;;;;;52.22;17.70;;;;;;;;;;5047156;28;20049;-42
2022/11/05 07:56:45;;;;;;;52.90;17.17;;;;;;;;;;5047900;28;20048;-45
2022/11/05 07:59:12;;;;;;;63.22;19.45;;;;;;;;;;5044799;28;20450;-45
2022/11/05 08:01:38;;;;;;;48.15;17.88;;;;;;;;;;5043483;28;20378;-46
2022/11/05 08:04:05;;;;;;;61.05;17.92;;;;;;;;;;5044788;28;20123;-46
2022/11/05 08:06:32;;;;;;;51.30;18.15;;;;;;;;;;5042291;28;20052;-43
2022/11/05 08:08:58;;;;;;;73.13;19.70;;;;;;;;;;5045424;28;20544;-42
2022/11/05 08:11:25;;;;;;;51.58;17.48;;;;;;;;;;5045011;28;20049;-43
2022/11/05 08:13:51;;;;;;;58.28;18.90;;;;;;;;;;5041883;28;20041;-45
2022/11/05 08:16:17;;;;;;;49.50;17.75;;;;;;;;;;5042036;28;20049;-43
2022/11/05 08:18:44;;;;;;;58.40;18.63;;;;;;;;;;5043586;28;20046;-47
2022/11/05 08:21:11;;;;;;;54.03;18.55;;;;;;;;;;5045974;28;20070;-45
2022/11/05 08:23:38;;;;;;;51.95;18.05;;;;;;;;;;5045024;28;20119;-46
2022/11/05 08:26:04;;;;;;;66.82;19.15;;;;;;;;;;5044619;28;20052;-46
2022/11/05 08:28:31;;;;;;;41.85;17.10;;;;;;;;;;5048463;28;20044;-45
2022/11/05 08:30:57;;;;;;;76.47;20.85;;;;;;;;;;5047986;28;20033;-44
2022/11/05 08:33:24;;;;;;;51.13;20.38;;;;;;;;;;5046778;28;20047;-49
2022/11/05 08:35:51;;;;;;;48.45;18.42;;;;;;;;;;5044922;28;20446;-43
2022/11/05 08:38:18;;;;;;;58.17;18.08;;;;;;;;;;5045409;28;20045;-46
2022/11/05 08:40:51;;;;;;;52.55;17.73;;;;;;;;;;5043888;28;20056;-42
2022/11/05 08:43:18;;;;;;;66.00;19.67;;;;;;;;;;5041870;28;20107;-42
2022/11/05 08:45:44;;;;;;;53.83;18.20;;;;;;;;;;5040247;28;20069;-44
2022/11/05 08:48:13;;;;;;;47.35;17.88;;;;;;;;;;5045391;28;20103;-42
2022/11/05 08:50:40;;;;;;;47.25;17.50;;;;;;;;;;5043594;28;20479;-40
2022/11/05 08:53:07;;;;;;;67.57;21.00;;;;;;;;;;5044835;28;20098;-43
2022/11/05 08:55:35;;;;;;;43.42;17.58;;;;;;;;;;5046806;28;20048;-42
2022/11/05 08:58:03;;;;;;;71.32;21.23;;;;;;;;;;5039914;28;20739;-39
2022/11/05 09:00:30;;;;;;;67.65;18.83;;;;;;;;;;5027164;28;20413;-45
2022/11/05 09:02:58;;;;;;;63.88;18.65;;;;;;;;;;5046549;28;20487;-41
2022/11/05 09:05:25;;;;;;;44.28;17.65;;;;;;;;;;5047425;28;20041;-44
2022/11/05 09:07:52;;;;;;;61.58;22.38;;;;;;;;;;5043474;28;20041;-44
2022/11/05 09:10:27;;;;;;;48.85;20.13;;;;;;;;;;5040238;28;20094;-44
2022/11/05 09:12:53;;;;;;;64.72;19.60;;;;;;;;;;5042705;28;20040;-47
2022/11/05 09:15:20;;;;;;;60.47;19.38;;;;;;;;;;5042814;28;20044;-43
2022/11/05 09:17:46;;;;;;;49.30;18.58;;;;;;;;;;5044411;28;20486;-42
2022/11/05 09:20:13;;;;;;;56.13;20.15;;;;;;;;;;5046070;28;20032;-40
2022/11/05 09:22:39;;;;;;;72.07;20.45;;;;;;;;;;5041961;28;20563;-44
2022/11/05 09:25:09;;;;;;;59.65;18.85;;;;;;;;;;5040851;28;20148;-40
2022/11/05 09:27:35;;;;;;;57.75;19.50;;;;;;;;;;5043385;28;20055;-42
2022/11/05 09:30:02;;;;;;;61.72;19.05;;;;;;;;;;5045014;28;20037;-42
2022/11/05 09:32:29;;;;;;;41.95;18.67;;;;;;;;;;5044409;28;20037;-41
2022/11/05 09:34:56;;;;;;;53.08;19.38;;;;;;;;;;5043818;28;20390;-44
2022/11/05 09:37:22;;;;;;;44.85;17.45;;;;;;;;;;5041918;28;20045;-43
2022/11/05 09:39:49;;;;;;;65.82;23.70;;;;;;;;;;5041057;28;20048;-45
2022/11/05 09:42:16;;;;;;;53.78;19.63;;;;;;;;;;5045746;28;20049;-42
2022/11/05 09:44:46;;;;;;;42.22;18.02;;;;;;;;;;5044175;28;20038;-46
2022/11/05 09:47:21;;;;;;;67.40;19.70;;;;;;;;;;5044912;28;20037;-43
2022/11/05 09:49:50;;;;;;;63.53;20.75;;;;;;;;;;5042340;28;20037;-42
2022/11/05 09:52:21;;;;;;;55.90;19.35;;;;;;;;;;5040543;28;20037;-43
2022/11/05 09:54:49;;;;;;;62.83;20.17;;;;;;;;;;5044600;28;20037;-45
2022/11/05 09:57:17;;;;;;;58.22;19.15;;;;;;;;;;5044830;28;20041;-45
2022/11/05 09:59:45;;;;;;;59.03;18.65;;;;;;;;;;5042895;28;20560;-43
2022/11/05 10:02:20;;;;;;;73.03;22.08;;;;;;;;;;5044526;28;20090;-44
2022/11/05 10:04:49;;;;;;;51.53;18.95;;;;;;;;;;5044250;28;20500;-43
2022/11/05 10:07:18;;;;;;;62.45;20.77;;;;;;;;;;5041881;28;20103;-42
2022/11/05 10:09:46;;;;;;;71.70;19.88;;;;;;;;;;5040526;28;20037;-44
2022/11/05 10:12:24;;;;;;;62.15;18.88;;;;;;;;;;5044385;28;20486;-43
2022/11/05 10:14:57;;;;;;;57.75;17.88;;;;;;;;;;5045616;28;20049;-41
2022/11/05 10:17:25;;;;;;;46.20;18.73;;;;;;;;;;5046360;28;20443;-48
2022/11/05 10:20:01;;;;;;;52.47;19.13;;;;;;;;;;5046582;28;20045;-46
2022/11/05 10:22:28;;;;;;;63.10;19.92;;;;;;;;;;5044756;28;20037;-43
2022/11/05 10:24:54;;;;;;;53.08;19.45;;;;;;;;;;5044143;28;20053;-44
2022/11/05 10:27:23;;;;;;;68.50;21.15;;;;;;;;;;5048369;28;20382;-46
2022/11/05 10:29:50;;;;;;;64.63;19.80;;;;;;;;;;5046256;28;20049;-42
2022/11/05 10:32:23;;;;;;;72.07;21.67;;;;;;;;;;5047021;28;20052;-44
2022/11/05 10:34:50;;;;;;;61.63;20.10;;;;;;;;;;5046035;28;20048;-43
2022/11/05 10:37:18;;;;;;;46.67;20.30;;;;;;;;;;5045653;28;20044;-44
2022/11/05 10:39:44;;;;;;;74.45;21.05;;;;;;;;;;5041716;28;20457;-47
2022/11/05 10:42:11;;;;;;;59.67;20.95;;;;;;;;;;5046862;28;20041;-42
2022/11/05 10:44:54;;;;;;;44.10;17.83;;;;;;;;;;5047670;28;20040;-43
2022/11/05 10:47:38;;;;;;;55.45;19.67;;;;;;;;;;5046630;28;20053;-45
2022/11/05 10:50:15;;;;;;;55.58;19.50;;;;;;;;;;5046989;28;20390;-44
2022/11/05 10:52:50;;;;;;;52.58;20.15;;;;;;;;;;5045064;28;20087;-42
2022/11/05 10:55:16;;;;;;;56.92;20.38;;;;;;;;;;5046968;28;20159;-45
2022/11/05 10:57:42;;;;;;;65.38;21.63;;;;;;;;;;5044861;28;20493;-43
2022/11/05 11:00:15;;;;;;;61.28;23.23;;;;;;;;;;5047518;28;20124;-44
2022/11/05 11:02:42;;;;;;;79.83;26.23;;;;;;;;;;5044490;28;20073;-41
2022/11/05 11:05:10;;;;;;;52.53;21.55;;;;;;;;;;5046584;28;20459;-44
2022/11/05 11:07:36;;;;;;;69.63;22.50;;;;;;;;;;5045279;28;20055;-42
2022/11/05 11:10:03;;;;;;;64.05;22.95;;;;;;;;;;5039863;28;20048;-43
2022/11/05 11:12:34;;;;;;;46.25;20.10;;;;;;;;;;5047613;28;20481;-43
2022/11/05 11:15:12;;;;;;;68.13;23.40;;;;;;;;;;5047053;28;20042;-42
2022/11/05 11:17:38;;;;;;;53.28;22.33;;;;;;;;;;5044713;28;20100;-41
2022/11/05 11:20:24;;;;;;;79.13;24.73;;;;;;;;;;5046016;28;20485;-41
2022/11/05 11:23:09;;;;;;;60.88;23.25;;;;;;;;;;5045339;28;20124;-41
2022/11/05 11:25:39;;;;;;;63.30;23.67;;;;;;;;;;5043327;28;20087;-42
2022/11/05 11:28:10;;;;;;;70.97;25.00;;;;;;;;;;5034640;28;20047;-40
2022/11/05 11:30:36;;;;;;;62.42;23.40;;;;;;;;;;5042799;28;20056;-41
2022/11/05 11:33:06;;;;;;;85.47;26.10;;;;;;;;;;5048472;28;20486;-41
2022/11/05 11:35:35;;;;;;;53.63;24.25;;;;;;;;;;5045752;28;20040;-45
2022/11/05 11:38:01;;;;;;;97.45;28.35;;;;;;;;;;5044376;28;20053;-41
2022/11/05 11:40:30;;;;;;;71.75;25.55;;;;;;;;;;5046454;28;20416;-43
2022/11/05 11:42:58;;;;;;;61.00;25.65;;;;;;;;;;5042654;28;20041;-44
2022/11/05 11:45:32;;;;;;;67.20;24.38;;;;;;;;;;5046714;28;20033;-45
2022/11/05 11:48:01;;;;;;;68.53;27.98;;;;;;;;;;5043698;28;20100;-45
2022/11/05 11:50:30;;;;;;;71.72;25.45;;;;;;;;;;5049652;28;20036;-40
2022/11/05 11:53:15;;;;;;;62.25;24.98;;;;;;;;;;5045109;28;20049;-41
2022/11/05 11:55:53;;;;;;;63.50;26.90;;;;;;;;;;5042611;28;20397;-41
2022/11/05 11:58:21;;;;;;;61.70;25.65;;;;;;;;;;5042709;28;20443;-42
2022/11/05 12:01:10;;;;;;;62.55;26.35;;;;;;;;;;5044110;28;20489;-41
2022/11/05 12:03:43;;;;;;;64.20;26.10;;;;;;;;;;5039890;28;20560;-40
2022/11/05 12:06:48;;;;;;;68.18;25.10;;;;;;;;;;5045900;28;20051;-41
2022/11/05 12:09:18;;;;;;;56.53;24.35;;;;;;;;;;4965351;28;20142;-45
2022/11/05 12:11:57;;;;;;;67.90;26.35;;;;;;;;;;4962928;28;20122;-40
2022/11/05 12:14:34;;;;;;;47.78;22.75;;;;;;;;;;4965304;28;20460;-42
2022/11/05 12:17:00;;;;;;;61.85;26.55;;;;;;;;;;4963821;28;20605;-41
2022/11/05 12:19:30;;;;;;;64.72;24.70;;;;;;;;;;4961096;28;20529;-45
2022/11/05 12:22:14;;;;;;;70.75;26.17;;;;;;;;;;4960770;28;20050;-40
2022/11/05 12:24:53;;;;;;;95.03;38.40;;;;;;;;;;4962827;28;20070;-42
2022/11/05 12:27:31;;;;;;;63.28;25.10;;;;;;;;;;4962617;28;20117;-43
2022/11/05 12:30:14;;;;;;;69.55;27.65;;;;;;;;;;4948567;29;20047;-42
2022/11/05 12:32:46;;;;;;;63.10;27.75;;;;;;;;;;4963027;28;20051;-44
2022/11/05 12:35:19;;;;;;;54.72;26.35;;;;;;;;;;4964541;28;20547;-44
2022/11/05 12:37:51;;;;;;;71.47;29.85;;;;;;;;;;4961483;28;20189;-45
2022/11/05 12:40:36;;;;;;;80.57;31.40;;;;;;;;;;5010772;28;20425;-43
2022/11/05 12:43:09;;;;;;;87.97;33.30;;;;;;;;;;5041703;28;20036;-44
2022/11/05 12:45:43;;;;;;;77.80;30.55;;;;;;;;;;5042594;28;20041;-42
2022/11/05 12:48:16;;;;;;;72.07;32.45;;;;;;;;;;5044787;28;20099;-43
2022/11/05 12:50:42;;;;;;;83.07;33.42;;;;;;;;;;5042460;28;20071;-45
2022/11/05 12:53:27;;;;;;;75.32;32.50;;;;;;;;;;5045073;28;20099;-42
2022/11/05 12:55:57;;;;;;;86.50;34.22;;;;;;;;;;5045137;28;20037;-45
2022/11/05 12:58:50;;;;;;;69.68;29.08;;;;;;;;;;5042084;28;20041;-45
2022/11/05 13:01:19;;;;;;;74.75;31.60;;;;;;;;;;5036695;28;20045;-43
2022/11/05 13:03:49;;;;;;;89.18;30.40;;;;;;;;;;5041961;28;20048;-43
2022/11/05 13:06:34;;;;;;;76.90;32.15;;;;;;;;;;5045331;28;20037;-44
2022/11/05 13:09:04;;;;;;;75.47;34.17;;;;;;;;;;5047112;28;20497;-42
2022/11/05 13:11:36;;;;;;;69.82;33.67;;;;;;;;;;5044115;28;20041;-43
2022/11/05 13:14:20;;;;;;;100.30;39.15;;;;;;;;;;5044240;28;20033;-45
2022/11/05 13:16:52;;;;;;;85.90;38.42;;;;;;;;;;5042590;28;20154;-41
2022/11/05 13:19:21;;;;;;;73.90;36.88;;;;;;;;;;5042419;28;20106;-43
2022/11/05 13:21:52;;;;;;;106.47;39.15;;;;;;;;;;5041443;28;20057;-43
2022/11/05 13:24:35;;;;;;;85.13;37.72;;;;;;;;;;5045823;28;20065;-42
2022/11/05 13:27:20;;;;;;;73.97;35.28;;;;;;;;;;5044977;28;20052;-43
2022/11/05 13:29:48;;;;;;;104.38;39.92;;;;;;;;;;5042396;28;20044;-41
2022/11/05 13:32:15;;;;;;;87.22;35.40;;;;;;;;;;5043960;28;20040;-40
2022/11/05 13:34:42;;;;;;;80.78;41.33;;;;;;;;;;5042440;28;20453;-43
2022/11/05 13:39:57;;;;;;;109.15;40.65;;;;;;;;;;5045413;28;20045;-41
2022/11/05 13:42:46;;;;;;;73.95;37.80;;;;;;;;;;5042897;28;20037;-40
2022/11/05 13:45:27;;;;;;;94.20;40.75;;;;;;;;;;5043182;28;20037;-40
2022/11/05 13:47:56;;;;;;;91.65;41.47;;;;;;;;;;5044908;28;20132;-41
2022/11/05 13:50:42;;;;;;;105.28;45.75;;;;;;;;;;5048070;28;20041;-41
2022/11/05 13:53:34;;;;;;;90.13;39.53;;;;;;;;;;5048461;28;20047;-41
2022/11/05 13:56:12;;;;;;;112.32;44.08;;;;;;;;;;5049891;28;20049;-40
2022/11/05 13:58:41;;;;;;;66.72;33.15;;;;;;;;;;5046111;28;20041;-40
2022/11/05 14:01:07;;;;;;;100.05;38.40;;;;;;;;;;5040666;28;20362;-42
2022/11/05 14:03:34;;;;;;;100.05;39.08;;;;;;;;;;5047601;28;20067;-42
2022/11/05 14:06:05;;;;;;;107.65;42.42;;;;;;;;;;5047393;28;20041;-41
2022/11/05 14:08:38;;;;;;;114.43;40.80;;;;;;;;;;5048229;28;20033;-41
2022/11/05 14:11:16;;;;;;;82.90;35.63;;;;;;;;;;5045683;28;20127;-40
2022/11/05 14:13:43;;;;;;;94.78;39.30;;;;;;;;;;5045505;28;20099;-40
2022/11/05 14:16:16;;;;;;;87.65;36.55;;;;;;;;;;5044006;28;20040;-40
2022/11/05 14:18:42;;;;;;;95.72;38.13;;;;;;;;;;5046234;28;20049;-40
2022/11/05 14:21:24;;;;;;;68.68;31.05;;;;;;;;;;5048280;28;20386;-40
2022/11/05 14:23:52;;;;;;;99.38;37.80;;;;;;;;;;5047610;28;20037;-40
2022/11/05 14:26:20;;;;;;;90.93;39.85;;;;;;;;;;5049397;28;20037;-40
2022/11/05 14:29:02;;;;;;;68.18;33.03;;;;;;;;;;5045078;28;20129;-42
2022/11/05 14:31:53;;;;;;;101.30;39.17;;;;;;;;;;5043556;28;20051;-41
2022/11/05 14:34:43;;;;;;;79.07;39.17;;;;;;;;;;5044634;28;20040;-40
2022/11/05 14:37:09;;;;;;;86.13;36.83;;;;;;;;;;5041820;28;20037;-43
2022/11/05 14:39:36;;;;;;;65.15;33.10;;;;;;;;;;5044163;28;20048;-41
2022/11/05 14:42:18;;;;;;;107.85;34.92;;;;;;;;;;5046887;28;20048;-42
2022/11/05 14:45:00;;;;;;;78.45;34.95;;;;;;;;;;5045739;28;20046;-41
2022/11/05 14:47:29;;;;;;;76.47;31.10;;;;;;;;;;5049237;28;20073;-41
2022/11/05 14:49:58;;;;;;;69.65;31.92;;;;;;;;;;5046152;28;20116;-42
2022/11/05 14:52:25;;;;;;;86.85;35.30;;;;;;;;;;5045012;28;20481;-43
2022/11/05 14:54:56;;;;;;;81.70;33.65;;;;;;;;;;5046764;28;20063;-42
2022/11/05 14:57:40;;;;;;;82.13;36.40;;;;;;;;;;5047663;28;20037;-40
2022/11/05 15:00:26;;;;;;;122.63;42.35;;;;;;;;;;5046485;28;20103;-40
2022/11/05 15:02:56;;;;;;;102.55;38.53;;;;;;;;;;5046054;28;20129;-45
2022/11/05 15:05:35;;;;;;;98.13;39.03;;;;;;;;;;5049230;28;20044;-42
2022/11/05 15:08:26;;;;;;;90.55;38.33;;;;;;;;;;5046453;28;20497;-40
2022/11/05 15:10:55;;;;;;;71.70;34.53;;;;;;;;;;5045027;28;20570;-40
2022/11/05 15:13:45;;;;;;;67.68;34.28;;;;;;;;;;5045390;28;20033;-42